Terminal Aerodrome Forecast
Issued by NWS

Home | Current Version | Previous Version | Text Only | Print | Product List | Glossary On
Versions: 1 2 3 4 5 6 7 8 9 10 11 12 13 14 15 16 17 18 19
000
FTUS41 KCAR 220500 RRA
TAFPQI
TAF
KPQI 220553Z 2206/2306 01005KT P6SM OVC050
     FM221500 04010KT P6SM BKN050
     FM222000 05014KT P6SM BKN030
     FM222100 05014KT 3SM -RA OVC025
     FM230300 05012KT P6SM OVC015
      AMD LTD TO CLD VIS AND WIND=

USA.gov is the U.S. government's official web portal to all federal, state and local government web resources and services.